createdAt,value
2022-10-04T08:52:14.253Z,44.51
2022-10-04T08:55:06.882Z,45.59
2022-10-04T08:58:02.522Z,45.55
2022-10-04T09:00:48.985Z,45.95
2022-10-04T09:03:46.920Z,45.42
2022-10-04T09:06:27.954Z,45.32
2022-10-04T09:09:35.736Z,44.93
2022-10-04T09:12:44.330Z,45.11
2022-10-04T09:15:26.979Z,44.72
2022-10-04T09:18:02.515Z,44.91
2022-10-04T09:20:49.306Z,45.04
2022-10-04T09:23:43.731Z,44.75
2022-10-04T09:26:22.124Z,44.53
2022-10-04T09:29:15.445Z,44.24
2022-10-04T09:32:08.893Z,44.33
2022-10-04T09:34:58.444Z,44.21
2022-10-04T09:37:42.670Z,44.69
2022-10-04T09:40:48.478Z,44.39
2022-10-04T09:43:37.541Z,44.07
2022-10-04T09:46:20.998Z,44.30
2022-10-04T09:48:58.726Z,44.22
2022-10-04T09:51:54.541Z,44.54
2022-10-04T09:55:04.366Z,44.08
2022-10-04T09:57:46.728Z,44.37
2022-10-04T10:00:23.970Z,44.51
2022-10-04T10:03:26.245Z,44.55
2022-10-04T10:06:21.508Z,44.57
2022-10-04T10:09:03.760Z,44.51
2022-10-04T10:11:57.840Z,44.25
2022-10-04T10:14:51.308Z,44.49
2022-10-04T10:17:28.445Z,44.74
2022-10-04T10:20:20.473Z,44.29
2022-10-04T10:23:06.993Z,44.85
2022-10-04T10:25:47.805Z,44.70
2022-10-04T10:28:32.878Z,45.34
2022-10-04T10:31:18.311Z,45.16
2022-10-04T10:34:21.047Z,45.02
2022-10-04T10:37:08.978Z,45.42
2022-10-04T10:40:03.925Z,45.12
2022-10-04T10:43:15.386Z,45.82
2022-10-04T10:45:58.887Z,46.12
2022-10-04T10:48:43.837Z,46.64
2022-10-04T10:51:20.366Z,47.56
2022-10-04T10:54:19.002Z,46.11
2022-10-04T10:57:07.740Z,46.38
2022-10-04T11:00:09.470Z,46.57
2022-10-04T11:03:11.794Z,46.42
2022-10-04T11:06:08.395Z,46.54
2022-10-04T11:09:17.211Z,46.61
2022-10-04T11:12:05.688Z,46.86
2022-10-04T11:15:22.104Z,46.94
2022-10-04T11:18:16.053Z,47.23
2022-10-04T11:21:07.559Z,47.18
2022-10-04T11:24:08.382Z,47.40
2022-10-04T11:27:00.737Z,47.18
2022-10-04T11:29:36.651Z,47.14
2022-10-04T11:32:37.647Z,47.50
2022-10-04T11:35:41.570Z,47.27
2022-10-04T11:38:16.417Z,47.76
2022-10-04T11:41:13.829Z,47.67
2022-10-04T11:44:17.025Z,47.57
2022-10-04T11:46:53.942Z,47.36
2022-10-04T11:49:43.742Z,47.46
2022-10-04T11:52:54.392Z,47.78
2022-10-04T11:55:42.121Z,47.90
2022-10-04T11:58:18.497Z,47.80
2022-10-04T12:01:15.083Z,47.83
2022-10-04T12:04:04.970Z,47.60
2022-10-04T12:06:50.169Z,48.09
2022-10-04T12:09:29.389Z,47.88
2022-10-04T12:12:43.809Z,48.26
2022-10-04T12:15:40.584Z,48.18
2022-10-04T12:18:45.012Z,48.12
2022-10-04T12:21:34.720Z,48.42
2022-10-04T12:24:15.801Z,48.19
2022-10-04T12:27:07.950Z,48.21
2022-10-04T12:30:13.979Z,48.64
2022-10-04T12:32:57.906Z,48.49
2022-10-04T12:35:35.307Z,48.88
2022-10-04T12:38:42.300Z,48.40
2022-10-04T12:41:25.707Z,48.51
2022-10-04T12:44:04.968Z,48.73
2022-10-04T12:46:40.774Z,48.45
2022-10-04T12:49:18.238Z,48.21
2022-10-04T12:51:58.825Z,48.14
2022-10-04T12:54:35.394Z,48.40
2022-10-04T12:57:26.914Z,48.30
2022-10-04T13:00:04.565Z,48.38
2022-10-04T13:02:58.996Z,48.46
2022-10-04T13:05:35.633Z,48.42
2022-10-04T13:08:18.182Z,48.63
2022-10-04T13:11:21.762Z,48.89
2022-10-04T13:14:14.817Z,48.80
2022-10-04T13:19:52.978Z,48.74
2022-10-04T13:22:55.928Z,48.94
2022-10-04T13:25:46.361Z,49.67
2022-10-04T13:28:24.524Z,49.61
2022-10-04T13:31:04.421Z,49.29
2022-10-04T13:33:41.928Z,49.59
2022-10-04T13:36:16.779Z,50.00
2022-10-04T13:39:11.235Z,49.94
2022-10-04T13:41:57.268Z,50.09
2022-10-04T13:44:33.567Z,49.42
2022-10-04T13:47:29.347Z,49.77
2022-10-04T13:50:17.872Z,49.82
2022-10-04T13:53:21.239Z,49.91
2022-10-04T13:56:14.420Z,50.06
2022-10-04T13:58:48.654Z,49.93
2022-10-04T14:01:48.935Z,49.46
2022-10-04T14:04:52.664Z,49.54
2022-10-04T14:07:37.174Z,49.51
2022-10-04T14:10:38.340Z,49.71
2022-10-04T14:13:51.700Z,49.45
2022-10-04T14:16:39.050Z,49.01
2022-10-04T14:19:31.875Z,48.93
2022-10-04T14:22:26.434Z,49.17
2022-10-04T14:25:56.604Z,49.24
2022-10-04T14:28:46.473Z,48.95
2022-10-04T14:31:37.683Z,49.06
2022-10-04T14:34:31.072Z,49.00
2022-10-04T14:37:28.237Z,49.15
2022-10-04T14:40:20.347Z,49.01
2022-10-04T14:43:15.246Z,49.17
2022-10-04T14:46:02.620Z,48.95
2022-10-04T14:48:58.484Z,49.40
2022-10-04T14:51:39.314Z,49.09
2022-10-04T14:54:11.071Z,48.57
2022-10-04T14:56:53.330Z,49.87
2022-10-04T14:59:53.637Z,50.13
2022-10-04T15:02:46.039Z,50.26
2022-10-04T15:05:28.566Z,50.80
2022-10-04T15:08:15.769Z,50.58
2022-10-04T15:10:50.856Z,50.85
2022-10-04T15:13:26.238Z,51.08
2022-10-04T15:16:08.904Z,50.92
2022-10-04T15:18:55.774Z,51.12
2022-10-04T15:21:43.624Z,51.50
2022-10-04T15:24:26.630Z,51.80
2022-10-04T15:27:18.201Z,51.83
2022-10-04T15:29:58.845Z,51.75
2022-10-04T15:32:40.945Z,51.74
2022-10-04T15:35:23.864Z,51.42
2022-10-04T15:37:59.275Z,51.89
2022-10-04T15:40:49.668Z,51.76
2022-10-04T15:43:24.006Z,51.74
2022-10-04T15:46:24.823Z,51.94
2022-10-04T15:49:31.438Z,51.99
2022-10-04T15:52:10.498Z,51.79
2022-10-04T15:55:03.036Z,52.08
2022-10-04T15:57:43.298Z,51.56
2022-10-04T16:00:15.576Z,51.80
2022-10-04T16:03:09.172Z,52.09
2022-10-04T16:05:45.036Z,51.77
2022-10-04T16:08:29.646Z,51.52
2022-10-04T16:11:21.717Z,51.44
2022-10-04T16:14:07.504Z,50.77
2022-10-04T16:17:09.699Z,50.48
2022-10-04T16:20:02.149Z,50.36
2022-10-04T16:22:33.690Z,49.96
2022-10-04T16:25:38.271Z,50.13
2022-10-04T16:28:11.371Z,49.76
2022-10-04T16:30:44.957Z,49.56
2022-10-04T16:33:25.422Z,49.69
2022-10-04T16:36:07.224Z,49.42
2022-10-04T16:39:05.522Z,49.72
2022-10-04T16:41:41.353Z,49.25
2022-10-04T16:44:23.680Z,48.93
2022-10-04T16:46:54.733Z,48.99
2022-10-04T16:49:29.506Z,49.25
2022-10-04T16:52:16.725Z,49.16
2022-10-04T16:55:15.215Z,48.90
2022-10-04T16:57:43.887Z,49.10
2022-10-04T17:00:35.227Z,48.35
2022-10-04T17:03:18.674Z,48.66
2022-10-04T17:06:02.943Z,49.16
2022-10-04T17:08:48.665Z,49.44
2022-10-04T17:12:00.391Z,49.64
2022-10-04T17:15:09.112Z,49.46
2022-10-04T17:17:46.669Z,49.86
2022-10-04T17:20:27.068Z,50.12
2022-10-04T17:23:06.033Z,50.00
2022-10-04T17:25:42.889Z,49.92
2022-10-04T17:28:27.318Z,49.97
2022-10-04T17:31:03.579Z,49.82
2022-10-04T17:33:44.568Z,49.93
2022-10-04T17:36:30.071Z,50.35
2022-10-04T17:39:08.334Z,50.33
2022-10-04T17:41:51.480Z,50.95
2022-10-04T17:44:34.224Z,51.00
2022-10-04T17:47:14.059Z,51.00
2022-10-04T17:50:10.824Z,51.52
2022-10-04T17:53:02.002Z,51.54
2022-10-04T17:55:43.986Z,51.71
2022-10-04T17:58:17.763Z,51.89
2022-10-04T18:01:08.573Z,51.92
2022-10-04T18:03:41.531Z,51.51
2022-10-04T18:06:21.114Z,52.03
2022-10-04T18:08:54.908Z,52.03
2022-10-04T18:11:31.316Z,52.14
2022-10-04T18:14:05.465Z,51.91
2022-10-04T18:16:47.096Z,51.79
2022-10-04T18:19:38.768Z,51.85
2022-10-04T18:22:14.927Z,51.75
2022-10-04T18:24:44.674Z,51.73
2022-10-04T18:27:21.051Z,52.16
2022-10-04T18:30:04.193Z,51.64
2022-10-04T18:32:35.675Z,51.78
2022-10-04T18:35:21.755Z,51.94
2022-10-04T18:37:50.801Z,51.72
2022-10-04T18:40:21.446Z,51.76
2022-10-04T18:42:55.589Z,52.09
2022-10-04T18:45:26.950Z,51.81
2022-10-04T18:47:59.915Z,51.64
2022-10-04T18:50:44.276Z,51.94
2022-10-04T18:53:43.646Z,51.68
2022-10-04T18:56:13.057Z,51.95
2022-10-04T18:59:13.568Z,51.54
2022-10-04T19:02:04.784Z,51.53
2022-10-04T19:04:45.424Z,51.95
2022-10-04T19:07:16.813Z,52.13
2022-10-04T19:10:20.060Z,51.91
2022-10-04T19:12:57.217Z,51.64
2022-10-04T19:15:45.944Z,51.71
2022-10-04T19:18:29.020Z,51.89
2022-10-04T19:21:09.696Z,52.08
2022-10-04T19:23:50.933Z,51.76
2022-10-04T19:26:32.096Z,51.74
2022-10-04T19:29:13.690Z,52.34
2022-10-04T19:31:53.850Z,51.81
2022-10-04T19:34:31.450Z,52.28
2022-10-04T19:37:08.976Z,51.81
2022-10-04T19:39:47.324Z,51.85
2022-10-04T19:42:18.221Z,51.96
2022-10-04T19:44:59.727Z,52.23
2022-10-04T19:47:39.834Z,51.88
2022-10-04T19:50:17.715Z,52.25
2022-10-04T19:52:53.297Z,52.02
2022-10-04T19:55:32.815Z,52.23
2022-10-04T19:58:14.197Z,52.18
2022-10-04T20:00:42.685Z,52.23
2022-10-04T20:03:12.743Z,51.86
2022-10-04T20:05:46.342Z,51.76
2022-10-04T20:08:17.924Z,51.87
2022-10-04T20:10:46.422Z,51.79
2022-10-04T20:13:23.541Z,51.92
2022-10-04T20:15:54.359Z,51.88
2022-10-04T20:18:58.435Z,52.25
2022-10-04T20:21:31.976Z,51.78
2022-10-04T20:24:02.341Z,52.12
2022-10-04T20:26:55.992Z,52.28
2022-10-04T20:30:06.402Z,52.01
2022-10-04T20:32:54.567Z,51.48
2022-10-04T20:36:01.810Z,51.31
2022-10-04T20:38:55.123Z,51.34
2022-10-04T20:42:22.270Z,51.56
2022-10-04T20:44:55.430Z,51.35
2022-10-04T20:47:46.146Z,51.30
2022-10-04T20:50:21.856Z,51.48
2022-10-04T20:52:53.671Z,50.91
2022-10-04T20:55:27.323Z,51.22
2022-10-04T20:57:58.746Z,51.25
2022-10-04T21:00:31.853Z,50.98
2022-10-04T21:03:24.766Z,50.90
2022-10-04T21:06:08.228Z,50.68
2022-10-04T21:08:37.577Z,51.16
2022-10-04T21:11:20.019Z,51.13
2022-10-04T21:13:59.934Z,51.06
2022-10-04T21:16:52.264Z,50.92
2022-10-04T21:19:45.495Z,50.88
2022-10-04T21:22:37.459Z,50.65
2022-10-04T21:25:22.644Z,50.55
2022-10-04T21:27:51.042Z,50.98
2022-10-04T21:30:20.561Z,50.76
2022-10-04T21:32:50.304Z,50.61
2022-10-04T21:35:18.772Z,51.02
2022-10-04T21:37:47.124Z,50.84
2022-10-04T21:40:15.648Z,50.64
2022-10-04T21:42:44.065Z,50.82
2022-10-04T21:45:12.412Z,50.74
2022-10-04T21:47:40.801Z,51.01
2022-10-04T21:50:10.898Z,50.76
2022-10-04T21:52:39.323Z,50.67
2022-10-04T21:55:10.564Z,51.02
2022-10-04T21:57:39.014Z,50.79
2022-10-04T22:00:08.812Z,51.19
2022-10-04T22:02:40.769Z,50.65
2022-10-04T22:05:10.718Z,50.76
2022-10-04T22:07:39.142Z,50.77
2022-10-04T22:10:07.998Z,50.76
2022-10-04T22:12:36.423Z,50.93
2022-10-04T22:15:05.380Z,50.81
2022-10-04T22:17:33.794Z,51.31
2022-10-04T22:20:02.320Z,50.86
2022-10-04T22:22:35.305Z,51.11
2022-10-04T22:25:14.757Z,50.89
2022-10-04T22:27:43.477Z,51.22
2022-10-04T22:30:22.407Z,51.32
2022-10-04T22:32:51.483Z,50.95
2022-10-04T22:35:21.329Z,51.23
2022-10-04T22:37:51.478Z,51.00
2022-10-04T22:40:22.428Z,50.91
2022-10-04T22:42:53.231Z,51.28
2022-10-04T22:45:24.825Z,50.74
2022-10-04T22:47:54.410Z,50.92
2022-10-04T22:50:29.579Z,50.85
2022-10-04T22:53:03.962Z,51.30
2022-10-04T22:55:32.529Z,51.01
2022-10-04T22:58:02.476Z,50.95
2022-10-04T23:00:30.877Z,50.85
2022-10-04T23:02:59.466Z,50.87
2022-10-04T23:05:28.839Z,50.95
2022-10-04T23:07:57.270Z,51.18
2022-10-04T23:10:26.990Z,51.08
2022-10-04T23:12:55.459Z,51.14
2022-10-04T23:15:24.039Z,51.17
2022-10-04T23:17:55.680Z,51.38
2022-10-04T23:20:24.541Z,50.95
2022-10-04T23:22:55.298Z,51.18
2022-10-04T23:25:28.412Z,50.45
2022-10-04T23:28:01.874Z,51.13
2022-10-04T23:30:30.482Z,51.17
2022-10-04T23:33:01.937Z,51.02
2022-10-04T23:35:32.633Z,51.11
2022-10-04T23:38:06.860Z,51.11
2022-10-04T23:40:36.674Z,50.84
2022-10-04T23:43:06.665Z,51.16
2022-10-04T23:45:41.581Z,50.84
2022-10-04T23:48:12.404Z,51.03
2022-10-04T23:50:41.743Z,51.19
2022-10-04T23:53:17.560Z,50.95
2022-10-04T23:55:47.605Z,50.79
2022-10-04T23:58:18.654Z,50.94
